createdAt,value
2022-10-31T00:00:55.505Z,14.93
2022-10-31T00:03:22.164Z,15.93
2022-10-31T00:05:50.344Z,16.37
2022-10-31T00:08:18.337Z,16.33
2022-10-31T00:10:46.572Z,16.87
2022-10-31T00:13:15.148Z,19.60
2022-10-31T00:15:42.182Z,17.17
2022-10-31T00:18:10.448Z,17.13
2022-10-31T00:20:39.407Z,17.20
2022-10-31T00:23:07.087Z,17.80
2022-10-31T00:25:36.816Z,20.37
2022-10-31T00:28:05.411Z,19.27
2022-10-31T00:30:32.429Z,19.80
2022-10-31T00:32:59.571Z,20.80
2022-10-31T00:35:26.805Z,22.03
2022-10-31T00:37:53.867Z,22.77
2022-10-31T00:40:20.415Z,22.93
2022-10-31T00:42:46.974Z,23.80
2022-10-31T00:45:13.751Z,22.30
2022-10-31T00:47:40.340Z,23.77
2022-10-31T00:50:08.540Z,25.00
2022-10-31T00:52:35.415Z,24.93
2022-10-31T00:55:02.924Z,24.00
2022-10-31T00:57:29.626Z,22.93
2022-10-31T00:59:56.202Z,23.17
2022-10-31T01:02:22.970Z,23.37
2022-10-31T01:04:49.622Z,24.03
2022-10-31T01:07:16.726Z,23.37
2022-10-31T01:09:45.044Z,26.60
2022-10-31T01:12:11.735Z,23.43
2022-10-31T01:14:43.914Z,23.70
2022-10-31T01:17:10.730Z,23.83
2022-10-31T01:19:37.286Z,25.57
2022-10-31T01:22:03.944Z,25.80
2022-10-31T01:24:30.668Z,26.10
2022-10-31T01:26:57.260Z,26.70
2022-10-31T01:29:24.603Z,24.33
2022-10-31T01:31:51.172Z,25.30
2022-10-31T01:34:18.212Z,26.03
2022-10-31T01:36:48.225Z,26.03
2022-10-31T01:39:16.281Z,26.97
2022-10-31T01:41:46.250Z,26.60
2022-10-31T01:44:13.131Z,27.20
2022-10-31T01:46:51.318Z,25.30
2022-10-31T01:49:26.925Z,25.27
2022-10-31T01:52:15.326Z,27.30
2022-10-31T01:54:51.758Z,26.30
2022-10-31T01:57:21.096Z,25.90
2022-10-31T01:59:53.510Z,27.20
2022-10-31T02:02:21.074Z,26.90
2022-10-31T02:04:49.045Z,26.47
2022-10-31T02:07:24.600Z,26.53
2022-10-31T02:09:53.891Z,27.47
2022-10-31T02:12:21.393Z,26.00
2022-10-31T02:14:47.983Z,28.53
2022-10-31T02:17:16.243Z,28.27
2022-10-31T02:19:54.973Z,26.83
2022-10-31T02:22:57.394Z,29.20
2022-10-31T02:25:54.223Z,25.83
2022-10-31T02:28:21.289Z,26.63
2022-10-31T02:31:09.593Z,28.03
2022-10-31T02:33:45.824Z,27.07
2022-10-31T02:36:22.849Z,27.27
2022-10-31T02:39:02.915Z,27.30
2022-10-31T02:42:10.432Z,26.90
2022-10-31T02:44:52.677Z,26.87
2022-10-31T02:47:25.135Z,27.47
2022-10-31T02:50:01.213Z,27.30
2022-10-31T02:52:30.088Z,28.50
2022-10-31T02:55:25.471Z,29.43
2022-10-31T02:58:03.287Z,30.47
2022-10-31T03:00:39.098Z,30.27
2022-10-31T03:03:11.552Z,32.20
2022-10-31T03:06:05.040Z,29.27
2022-10-31T03:09:15.148Z,31.07
2022-10-31T03:12:05.949Z,31.07
2022-10-31T03:14:55.163Z,29.33
2022-10-31T03:17:37.651Z,28.93
2022-10-31T03:20:07.286Z,32.87
2022-10-31T03:22:35.883Z,31.73
2022-10-31T03:25:05.138Z,32.93
2022-10-31T03:27:36.454Z,31.20
2022-10-31T03:30:06.418Z,30.30
2022-10-31T03:32:52.482Z,33.10
2022-10-31T03:35:23.646Z,31.90
2022-10-31T03:37:52.890Z,47.30
2022-10-31T03:40:22.965Z,29.60
2022-10-31T03:42:58.801Z,27.53
2022-10-31T03:45:30.394Z,29.63
2022-10-31T03:47:59.687Z,32.47
2022-10-31T03:50:36.572Z,36.17
2022-10-31T03:53:14.490Z,47.67
2022-10-31T03:55:52.199Z,28.33
2022-10-31T03:58:29.930Z,29.20
2022-10-31T04:00:58.599Z,25.53
2022-10-31T04:03:31.010Z,24.30
2022-10-31T04:06:05.349Z,29.43
2022-10-31T04:08:36.549Z,29.57
2022-10-31T04:11:06.539Z,29.57
2022-10-31T04:13:37.554Z,36.10
2022-10-31T04:16:17.300Z,53.27
2022-10-31T04:18:44.999Z,36.53
2022-10-31T04:21:11.923Z,29.60
2022-10-31T04:23:38.478Z,23.33
2022-10-31T04:26:15.363Z,26.73
2022-10-31T04:28:44.176Z,22.33
2022-10-31T04:31:13.549Z,47.00
2022-10-31T04:33:40.986Z,24.90
2022-10-31T04:36:08.147Z,20.87
2022-10-31T04:38:35.171Z,18.90
2022-10-31T04:41:05.790Z,19.67
2022-10-31T04:43:44.437Z,32.93
2022-10-31T04:46:11.351Z,37.50
2022-10-31T04:48:38.144Z,62.93
2022-10-31T04:51:06.711Z,24.80
2022-10-31T04:53:34.085Z,33.20
2022-10-31T04:56:26.948Z,33.33
2022-10-31T04:58:58.743Z,41.83
2022-10-31T05:01:26.530Z,34.93
2022-10-31T05:03:55.724Z,39.37
2022-10-31T05:06:22.351Z,30.50
2022-10-31T05:08:49.156Z,29.20
2022-10-31T05:11:15.771Z,29.50
2022-10-31T05:13:44.493Z,29.53
2022-10-31T05:16:14.221Z,29.60
2022-10-31T05:19:15.655Z,29.37
2022-10-31T05:22:11.961Z,28.37
2022-10-31T05:24:38.889Z,27.50
2022-10-31T05:27:05.457Z,35.60
2022-10-31T05:29:34.290Z,32.90
2022-10-31T05:32:03.699Z,32.00
2022-10-31T05:34:48.993Z,44.47
2022-10-31T05:37:42.110Z,42.73
2022-10-31T05:40:12.322Z,47.47
2022-10-31T05:42:41.201Z,41.47
2022-10-31T05:45:09.954Z,52.83
2022-10-31T05:47:53.944Z,41.97
2022-10-31T05:50:39.193Z,38.63
2022-10-31T05:53:09.580Z,36.97
2022-10-31T05:55:38.101Z,42.50
2022-10-31T05:58:21.932Z,32.80
2022-10-31T06:00:54.499Z,33.10
2022-10-31T06:03:21.130Z,49.03
2022-10-31T06:05:55.053Z,42.97
2022-10-31T06:08:25.158Z,36.53
2022-10-31T06:10:53.959Z,36.00
2022-10-31T06:13:28.869Z,48.80
2022-10-31T06:16:01.798Z,41.97
2022-10-31T06:18:34.680Z,60.03
2022-10-31T06:21:01.380Z,41.40
2022-10-31T06:23:28.863Z,41.77
2022-10-31T06:26:15.424Z,48.80
2022-10-31T06:28:42.126Z,30.17
2022-10-31T06:31:27.190Z,29.90
2022-10-31T06:33:54.047Z,51.43
2022-10-31T06:36:21.039Z,49.20
2022-10-31T06:38:47.638Z,30.73
2022-10-31T06:41:16.831Z,37.13
2022-10-31T06:43:48.169Z,37.20
2022-10-31T06:46:37.892Z,32.20
2022-10-31T06:49:23.466Z,23.83
2022-10-31T06:51:54.089Z,52.00
2022-10-31T06:54:22.298Z,24.83
2022-10-31T06:56:49.588Z,42.80
2022-10-31T06:59:16.630Z,35.90
2022-10-31T07:02:12.295Z,34.47
2022-10-31T07:04:40.369Z,42.67
2022-10-31T07:07:07.886Z,42.10
2022-10-31T07:09:35.735Z,31.00
2022-10-31T07:12:04.383Z,34.53
2022-10-31T07:14:33.417Z,26.70
2022-10-31T07:17:01.031Z,29.40
2022-10-31T07:19:33.658Z,26.70
2022-10-31T07:22:00.220Z,27.43
2022-10-31T07:24:29.290Z,28.20
2022-10-31T07:27:14.587Z,29.03
2022-10-31T07:29:44.778Z,29.03
2022-10-31T07:32:12.154Z,29.23
2022-10-31T07:34:47.475Z,23.07
2022-10-31T07:37:22.673Z,25.30
2022-10-31T07:39:49.506Z,21.40
2022-10-31T07:42:16.585Z,25.33
2022-10-31T07:44:45.233Z,21.73
2022-10-31T07:47:30.837Z,22.60
2022-10-31T07:50:19.856Z,24.03
2022-10-31T07:53:14.055Z,21.70
2022-10-31T07:55:53.509Z,20.10
2022-10-31T07:58:20.189Z,23.13
2022-10-31T08:00:48.381Z,22.50
2022-10-31T08:03:21.615Z,22.43
2022-10-31T08:06:10.808Z,24.67
2022-10-31T08:08:55.787Z,24.67
2022-10-31T08:11:23.131Z,24.13
2022-10-31T08:13:50.122Z,22.73
2022-10-31T08:16:16.760Z,22.37
2022-10-31T08:18:51.732Z,22.57
2022-10-31T08:21:19.469Z,25.00
2022-10-31T08:23:46.326Z,25.50
2022-10-31T08:26:14.320Z,24.23
2022-10-31T08:28:40.979Z,23.27
2022-10-31T08:31:07.599Z,24.53
2022-10-31T08:33:39.790Z,24.03
2022-10-31T08:36:32.514Z,23.80
2022-10-31T08:39:06.046Z,23.13
2022-10-31T08:41:33.213Z,23.17
2022-10-31T08:44:00.872Z,23.87
2022-10-31T08:46:27.526Z,24.77
2022-10-31T08:48:54.094Z,23.37
2022-10-31T08:51:21.171Z,26.20
2022-10-31T08:53:51.425Z,28.90
2022-10-31T08:56:33.126Z,29.37
2022-10-31T08:59:02.171Z,26.03
2022-10-31T09:01:54.702Z,22.27
2022-10-31T09:04:21.717Z,23.50
2022-10-31T09:07:19.711Z,25.70
2022-10-31T09:09:34.977Z,25.40
2022-10-31T09:12:02.037Z,26.77
2022-10-31T09:14:47.016Z,24.30
2022-10-31T09:17:27.668Z,24.23
2022-10-31T09:20:14.419Z,26.20
2022-10-31T09:22:43.024Z,26.50
2022-10-31T09:25:10.108Z,26.90
2022-10-31T09:27:37.953Z,24.27
2022-10-31T09:30:07.163Z,24.93
2022-10-31T09:32:33.985Z,24.90
2022-10-31T09:35:00.760Z,26.30
2022-10-31T09:37:28.522Z,25.60
2022-10-31T09:39:55.185Z,26.10
2022-10-31T09:42:49.183Z,26.50
2022-10-31T09:45:44.224Z,25.77
2022-10-31T09:48:50.506Z,25.50
2022-10-31T09:51:49.183Z,25.17
2022-10-31T09:54:45.991Z,26.20
2022-10-31T09:57:19.646Z,23.17
2022-10-31T09:59:50.347Z,23.03
2022-10-31T10:02:24.055Z,24.97
2022-10-31T10:04:57.996Z,25.20
2022-10-31T10:08:09.605Z,24.70
2022-10-31T10:11:27.116Z,25.60
2022-10-31T10:14:05.465Z,27.43
2022-10-31T10:16:53.380Z,29.20
2022-10-31T10:19:49.585Z,27.87
2022-10-31T10:22:43.250Z,27.47
2022-10-31T10:25:21.737Z,27.80
2022-10-31T10:28:21.258Z,27.23
2022-10-31T10:31:11.207Z,27.30
2022-10-31T10:33:42.344Z,26.53
2022-10-31T10:36:26.840Z,26.50
2022-10-31T10:39:00.006Z,22.80
2022-10-31T10:41:34.282Z,26.63
2022-10-31T10:44:01.487Z,26.23
2022-10-31T10:47:01.026Z,24.90
2022-10-31T10:49:52.680Z,25.30
2022-10-31T10:52:44.764Z,21.57
2022-10-31T10:55:31.598Z,22.57
2022-10-31T10:58:04.469Z,24.80
2022-10-31T11:00:35.798Z,26.10
2022-10-31T11:03:02.884Z,25.57
2022-10-31T11:05:37.785Z,24.97
2022-10-31T11:08:05.846Z,27.20
2022-10-31T11:10:34.158Z,28.13
2022-10-31T11:13:10.794Z,26.80
2022-10-31T11:15:51.141Z,27.03
2022-10-31T11:20:55.990Z,28.63
2022-10-31T11:23:25.012Z,27.33
2022-10-31T11:26:04.834Z,26.63
2022-10-31T11:28:35.200Z,24.27
2022-10-31T11:31:06.336Z,25.30
2022-10-31T11:33:36.522Z,23.97
2022-10-31T11:36:15.634Z,24.53
2022-10-31T11:38:44.137Z,25.10
2022-10-31T11:41:28.548Z,24.40
2022-10-31T11:44:05.528Z,24.90
2022-10-31T11:46:34.780Z,26.53
2022-10-31T11:49:04.001Z,25.00
2022-10-31T11:51:33.744Z,24.70
2022-10-31T11:54:05.390Z,26.33
2022-10-31T11:56:42.865Z,23.67
2022-10-31T11:59:30.213Z,30.07
2022-10-31T12:01:59.068Z,26.63
2022-10-31T12:04:45.347Z,24.67
2022-10-31T12:07:12.276Z,24.77
2022-10-31T12:09:39.457Z,24.63
2022-10-31T12:12:09.013Z,25.60
2022-10-31T12:14:45.686Z,24.33
2022-10-31T12:17:20.896Z,24.67
2022-10-31T12:20:06.714Z,24.50
2022-10-31T12:22:55.753Z,23.43
2022-10-31T12:25:37.501Z,24.40
2022-10-31T12:28:20.793Z,24.10
2022-10-31T12:30:50.016Z,25.40
2022-10-31T12:33:30.868Z,21.80
2022-10-31T12:36:15.328Z,21.83
2022-10-31T12:38:49.540Z,20.40
2022-10-31T12:41:28.175Z,20.97
2022-10-31T12:44:07.636Z,22.13
2022-10-31T12:47:11.553Z,20.80
2022-10-31T12:49:53.105Z,20.77
2022-10-31T12:52:41.173Z,20.63
2022-10-31T12:55:53.347Z,18.77
2022-10-31T12:58:28.054Z,16.37
2022-10-31T13:01:09.040Z,16.77
2022-10-31T13:04:02.514Z,17.67
2022-10-31T13:06:39.492Z,17.30
2022-10-31T13:09:13.805Z,17.67
2022-10-31T13:11:46.004Z,16.27
2022-10-31T13:14:21.387Z,17.53
2022-10-31T13:16:49.032Z,16.20
2022-10-31T13:19:24.701Z,17.00
2022-10-31T13:21:51.177Z,17.97
2022-10-31T13:24:24.383Z,17.07
2022-10-31T13:26:58.091Z,16.27
2022-10-31T13:29:35.232Z,13.07
2022-10-31T13:32:06.169Z,14.03
2022-10-31T13:34:46.342Z,13.80
2022-10-31T13:37:31.507Z,14.30
2022-10-31T13:40:13.937Z,12.10
2022-10-31T13:42:46.473Z,13.40
2022-10-31T13:45:17.842Z,12.70
2022-10-31T13:47:55.323Z,12.70
2022-10-31T13:50:31.107Z,13.00
2022-10-31T13:53:20.630Z,12.00
2022-10-31T13:55:48.428Z,12.63
2022-10-31T13:58:25.836Z,13.93
2022-10-31T14:01:19.676Z,12.50
2022-10-31T14:04:12.252Z,13.37
2022-10-31T14:06:54.429Z,12.87
2022-10-31T14:09:33.969Z,12.23
2022-10-31T14:12:12.844Z,11.83
2022-10-31T14:14:48.522Z,11.60
2022-10-31T14:17:26.599Z,12.00
2022-10-31T14:20:01.729Z,11.47
2022-10-31T14:22:36.354Z,10.77
2022-10-31T14:25:33.226Z,9.53
2022-10-31T14:28:03.300Z,9.37
2022-10-31T14:30:31.420Z,9.63
2022-10-31T14:33:03.481Z,9.37
2022-10-31T14:35:57.830Z,10.80
2022-10-31T14:38:45.757Z,8.73
2022-10-31T14:41:29.278Z,10.03
2022-10-31T14:44:26.479Z,8.90
2022-10-31T14:47:10.354Z,8.90
2022-10-31T14:49:58.930Z,9.83
2022-10-31T14:52:26.014Z,9.67
2022-10-31T14:54:55.757Z,9.20
2022-10-31T14:57:33.772Z,10.43
2022-10-31T15:00:06.036Z,10.70
2022-10-31T15:02:39.725Z,10.90
2022-10-31T15:05:11.228Z,10.90
2022-10-31T15:07:50.627Z,9.20
2022-10-31T15:10:23.589Z,10.70
2022-10-31T15:12:50.565Z,8.40
2022-10-31T15:15:27.617Z,10.40
2022-10-31T15:18:00.687Z,9.90
2022-10-31T15:20:31.458Z,9.23
2022-10-31T15:23:00.181Z,10.20
2022-10-31T15:25:31.106Z,11.73
2022-10-31T15:27:58.011Z,10.60
2022-10-31T15:30:27.995Z,11.30
2022-10-31T15:32:58.654Z,13.00
2022-10-31T15:35:31.463Z,13.10
2022-10-31T15:38:00.298Z,12.13
2022-10-31T15:40:29.251Z,18.27
2022-10-31T15:43:00.108Z,16.00
2022-10-31T15:45:28.906Z,18.87
2022-10-31T15:47:59.325Z,12.70
2022-10-31T15:50:41.175Z,10.80
2022-10-31T15:53:29.135Z,10.13
2022-10-31T15:56:17.252Z,10.43
2022-10-31T15:58:46.437Z,23.23
2022-10-31T16:01:33.696Z,16.13
2022-10-31T16:04:23.685Z,9.27
2022-10-31T16:07:02.974Z,8.50
2022-10-31T16:09:29.869Z,13.37
2022-10-31T16:11:59.367Z,9.20
2022-10-31T16:14:38.059Z,9.50
2022-10-31T16:17:04.625Z,7.80
2022-10-31T16:19:34.983Z,8.37
2022-10-31T16:22:13.053Z,9.70
2022-10-31T16:24:52.754Z,7.93
2022-10-31T16:27:26.509Z,6.93
2022-10-31T16:29:53.726Z,8.00
2022-10-31T16:32:56.337Z,7.10
2022-10-31T16:35:36.014Z,7.40
2022-10-31T16:38:03.282Z,8.10
2022-10-31T16:40:31.283Z,8.40
2022-10-31T16:43:00.123Z,8.80
2022-10-31T16:45:30.178Z,8.07
2022-10-31T16:48:05.217Z,8.57
2022-10-31T16:50:31.807Z,7.60
2022-10-31T16:53:13.390Z,8.20
2022-10-31T16:55:56.656Z,7.30
2022-10-31T16:58:28.652Z,6.70
2022-10-31T17:00:55.395Z,6.60
2022-10-31T17:03:22.068Z,7.10
2022-10-31T17:05:49.072Z,6.37
2022-10-31T17:08:16.397Z,6.40
2022-10-31T17:10:45.243Z,5.97
2022-10-31T17:13:18.001Z,7.17
2022-10-31T17:15:50.196Z,6.90
2022-10-31T17:18:20.563Z,6.40
2022-10-31T17:20:55.689Z,6.90
2022-10-31T17:23:22.318Z,7.80
2022-10-31T17:25:48.878Z,7.07
2022-10-31T17:28:15.674Z,6.67
2022-10-31T17:30:42.999Z,6.93
2022-10-31T17:33:15.082Z,7.53
2022-10-31T17:35:45.948Z,7.20
2022-10-31T17:38:13.296Z,8.80
2022-10-31T17:40:44.108Z,7.00
2022-10-31T17:43:11.312Z,8.10
2022-10-31T17:45:42.108Z,8.80
2022-10-31T17:48:12.913Z,8.03
2022-10-31T17:50:39.661Z,7.83
2022-10-31T17:53:06.240Z,7.33
2022-10-31T17:55:37.158Z,8.33
2022-10-31T17:58:05.264Z,10.17
2022-10-31T18:00:31.925Z,9.07
2022-10-31T18:02:58.900Z,9.60
2022-10-31T18:05:25.732Z,10.80
2022-10-31T18:07:52.457Z,10.80
2022-10-31T18:10:19.164Z,10.80
2022-10-31T18:12:46.004Z,11.60
2022-10-31T18:15:12.619Z,11.13
2022-10-31T18:17:42.010Z,11.80
2022-10-31T18:20:10.200Z,13.60
2022-10-31T18:22:36.845Z,12.87
2022-10-31T18:25:04.466Z,13.50
2022-10-31T18:27:31.638Z,13.47
2022-10-31T18:29:58.216Z,13.63
2022-10-31T18:32:24.815Z,13.20
2022-10-31T18:34:51.391Z,14.60
2022-10-31T18:37:18.220Z,14.70
2022-10-31T18:39:44.905Z,14.10
2022-10-31T18:42:11.542Z,14.53
2022-10-31T18:44:38.247Z,14.27
2022-10-31T18:47:04.924Z,16.23
2022-10-31T18:49:32.718Z,14.90
2022-10-31T18:52:00.153Z,15.70
2022-10-31T18:54:27.136Z,17.33
2022-10-31T18:56:54.541Z,16.80
2022-10-31T18:59:21.402Z,16.70
2022-10-31T19:01:48.093Z,18.50
2022-10-31T19:04:14.716Z,19.90
2022-10-31T19:06:41.286Z,18.17
2022-10-31T19:09:09.703Z,17.77
2022-10-31T19:11:37.716Z,17.53
2022-10-31T19:14:08.157Z,18.10
2022-10-31T19:16:35.185Z,17.57
2022-10-31T19:19:01.839Z,17.47
2022-10-31T19:21:30.325Z,20.83
2022-10-31T19:23:58.052Z,22.33
2022-10-31T19:26:26.410Z,21.80
2022-10-31T19:28:53.435Z,20.50
2022-10-31T19:31:20.042Z,20.30
2022-10-31T19:33:47.043Z,20.10
2022-10-31T19:36:15.878Z,20.57
2022-10-31T19:38:44.982Z,22.20
2022-10-31T19:41:14.378Z,20.30
2022-10-31T19:43:41.345Z,21.90
2022-10-31T19:46:17.463Z,21.37
2022-10-31T19:48:55.173Z,22.03
2022-10-31T19:51:22.572Z,22.30
2022-10-31T19:53:52.431Z,22.80
2022-10-31T19:56:21.425Z,22.40
2022-10-31T19:58:48.397Z,23.07
2022-10-31T20:01:20.323Z,24.47
2022-10-31T20:03:48.542Z,22.90
2022-10-31T20:06:30.641Z,24.63
2022-10-31T20:08:57.617Z,26.77
2022-10-31T20:11:28.015Z,25.20
2022-10-31T20:13:56.402Z,27.10
2022-10-31T20:16:24.125Z,25.53
2022-10-31T20:18:50.762Z,24.80
2022-10-31T20:21:20.246Z,25.77
2022-10-31T20:23:50.606Z,27.10
2022-10-31T20:26:19.198Z,27.13
2022-10-31T20:28:46.955Z,28.27
2022-10-31T20:31:22.744Z,29.00
2022-10-31T20:33:50.153Z,29.23
2022-10-31T20:36:23.689Z,29.47
2022-10-31T20:38:52.204Z,29.40
2022-10-31T20:41:19.442Z,31.10
2022-10-31T20:43:46.256Z,31.43
2022-10-31T20:46:19.237Z,31.37
2022-10-31T20:48:46.164Z,28.70
2022-10-31T20:51:17.931Z,32.63
2022-10-31T20:53:45.242Z,32.20
2022-10-31T20:56:16.107Z,30.03
2022-10-31T20:58:43.632Z,30.53
2022-10-31T21:01:18.855Z,31.33
2022-10-31T21:03:46.443Z,30.27
2022-10-31T21:06:13.866Z,31.53
2022-10-31T21:08:40.586Z,31.97
2022-10-31T21:11:18.759Z,29.80
2022-10-31T21:13:46.767Z,29.73
2022-10-31T21:16:19.510Z,28.53
2022-10-31T21:18:47.698Z,30.17
2022-10-31T21:21:21.765Z,30.27
2022-10-31T21:23:53.022Z,30.00
2022-10-31T21:26:21.351Z,29.87
2022-10-31T21:28:49.707Z,28.00
2022-10-31T21:31:17.751Z,30.73
2022-10-31T21:33:45.519Z,29.47
2022-10-31T21:36:13.048Z,31.83
2022-10-31T21:38:40.081Z,27.70
2022-10-31T21:41:14.742Z,30.10
2022-10-31T21:43:44.046Z,30.03
2022-10-31T21:46:12.900Z,32.40
2022-10-31T21:48:44.012Z,32.03
2022-10-31T21:51:22.085Z,33.40
2022-10-31T21:54:07.691Z,31.40
2022-10-31T21:56:34.720Z,31.63
2022-10-31T21:59:01.965Z,32.20
2022-10-31T22:01:29.549Z,33.87
2022-10-31T22:03:57.179Z,34.47
2022-10-31T22:06:27.777Z,36.27
2022-10-31T22:08:54.366Z,35.53
2022-10-31T22:11:21.836Z,35.87
2022-10-31T22:13:50.373Z,34.87
2022-10-31T22:16:19.422Z,36.73
2022-10-31T22:18:46.673Z,36.47
2022-10-31T22:21:17.818Z,34.93
2022-10-31T22:23:49.507Z,35.27
2022-10-31T22:26:16.211Z,34.80
2022-10-31T22:28:47.668Z,34.37
2022-10-31T22:31:17.066Z,34.87
2022-10-31T22:33:44.501Z,35.53
2022-10-31T22:36:14.571Z,38.60
2022-10-31T22:38:41.986Z,40.73
2022-10-31T22:41:14.398Z,37.83
2022-10-31T22:43:41.410Z,38.43
2022-10-31T22:46:11.870Z,40.37
2022-10-31T22:48:41.594Z,39.87
2022-10-31T22:51:29.604Z,40.47
2022-10-31T22:53:56.763Z,41.27
2022-10-31T22:56:26.352Z,41.83
2022-10-31T22:58:53.645Z,43.50
2022-10-31T23:01:23.213Z,40.10
2022-10-31T23:03:50.265Z,41.70
2022-10-31T23:06:19.407Z,41.07
2022-10-31T23:08:47.023Z,39.87
2022-10-31T23:11:18.981Z,41.57
2022-10-31T23:14:08.901Z,39.90
2022-10-31T23:16:47.081Z,41.17
2022-10-31T23:19:20.600Z,40.73
2022-10-31T23:21:55.588Z,39.70
2022-10-31T23:24:36.599Z,41.73
2022-10-31T23:27:10.616Z,43.30
2022-10-31T23:29:55.196Z,44.17
2022-10-31T23:32:30.143Z,43.20
2022-10-31T23:34:59.328Z,44.10
2022-10-31T23:37:28.815Z,42.20
2022-10-31T23:39:55.968Z,43.60
2022-10-31T23:42:23.664Z,44.70
2022-10-31T23:44:50.541Z,41.43
2022-10-31T23:47:18.074Z,47.73
2022-10-31T23:49:44.784Z,45.43
2022-10-31T23:52:12.037Z,44.30
2022-10-31T23:54:39.954Z,47.37
2022-10-31T23:57:06.861Z,44.00
2022-10-31T23:59:33.469Z,41.77
